• Join FlightAware (Why Join?)
  • Login
  • US Flag 
01:48PM EDT


 

Airport Tracker/Info


-or-


 

Live Flight TrackerFlight Track Log ✈ CJC4864 ✈ 21-Apr-2012 ✈ KIAD - KEWR

Flight Track Log - Related Links

Times and Time Zones

All times are in EDT time to prevent confusion due to time zone crossing. See the CJC4864 flight status page for this flight to view local times or setup timezone preferences in your user account.

Time Position Orientation Groundspeed Altitude Reporting Facility
EDT Latitude Longitude Course Direction KTS MPH feet Rate Location/Type
07:51PM 38.9833 -77.5167 333° Northwest 165 190 3,100  Level Potomac TRACON
07:52PM 39.0333 -77.5500 38° Northeast 218 251 4,700 1,560 Climbing Potomac TRACON
07:53PM 39.0833 -77.5000 46° Northeast 259 298 6,300 1,680 Climbing Potomac TRACON
07:54PM 39.1333 -77.4333 57° Northeast 275 316 8,000 1,380 Climbing Potomac TRACON
07:55PM 39.1833 -77.3333 57° Northeast 306 352 9,100 420 Climbing Potomac TRACON
07:56PM 39.2333 -77.2333 57° Northeast 316 364 9,000 240 Descending Potomac TRACON
07:57PM 39.2833 -77.1333 57° Northeast 308 354 9,700 900 Climbing Potomac TRACON
07:58PM 39.3333 -77.0333 90° East 318 366 11,000 600 Climbing Potomac TRACON
07:59PM 39.3333 -76.9167 90° East 343 395 11,000  Level Potomac TRACON
08:00PM 39.3333 -76.8000 90° East 339 390 11,000  Level Potomac TRACON
08:01PM 39.3333 -76.6667 90° East 341 392 11,000  Level Potomac TRACON
08:02PM 39.3333 -76.5500 102° East 339 390 11,000  Level Potomac TRACON
08:03PM 39.3167 -76.4500 90° East 337 388 11,000  Level Potomac TRACON
08:04PM 39.3167 -76.3167 91° East 336 387 11,000  Level Potomac TRACON
08:04PM 39.3153 -76.2411 93° East 338 389 11,000  Level FAA TRACON SMA TRACON (SMA)
08:05PM 39.3125 -76.1669 92° East 337 388 11,000  Level FAA TRACON SMA TRACON (SMA)
08:06PM 39.3100 -76.0836 65° Northeast 334 384 11,000  Level FAA TRACON SMA TRACON (SMA)
08:06PM 39.3353 -76.0125 45° Northeast 331 381 11,000  Level FAA TRACON SMA TRACON (SMA)
08:07PM 39.3750 -75.9617 41° Northeast 325 374 11,000  Level FAA TRACON SMA TRACON (SMA)
08:08PM 39.4225 -75.9089 53° Northeast 324 373 11,000  Level FAA TRACON SMA TRACON (SMA)
08:09PM 39.4597 -75.8444 60° Northeast 330 380 11,000  Level FAA TRACON SMA TRACON (SMA)
08:09PM 39.4875 -75.7825 59° Northeast 330 380 11,000  Level FAA TRACON SMA TRACON (SMA)
08:10PM 39.5206 -75.7111 59° Northeast 330 380 11,000  Level FAA TRACON SMA TRACON (SMA)
08:11PM 39.5533 -75.6408 58° Northeast 330 380 11,000  Level FAA TRACON SMA TRACON (SMA)
08:11PM 39.5831 -75.5786 58° Northeast 330 380 11,000  Level FAA TRACON SMA TRACON (SMA)
08:12PM 39.6161 -75.5086 59° Northeast 333 383 11,000  Level FAA TRACON SMA TRACON (SMA)
08:13PM 39.6500 -75.4344 59° Northeast 341 392 11,000  Level FAA TRACON SMA TRACON (SMA)
08:13PM 39.6811 -75.3683 59° Northeast 348 400 11,000  Level FAA TRACON SMA TRACON (SMA)
08:14PM 39.7150 -75.2936 59° Northeast 348 400 11,000  Level FAA TRACON SMA TRACON (SMA)
08:14PM 39.7489 -75.2206 59° Northeast 342 394 11,000 -540 Level FAA TRACON SMA TRACON (SMA)
08:15PM 39.7767 -75.1592 59° Northeast 328 377 10,300 -1,080 Descending FAA TRACON SMA TRACON (SMA)
08:16PM 39.8078 -75.0911 59° Northeast 318 366 9,600 -1,080 Descending FAA TRACON SMA TRACON (SMA)
08:16PM 39.8383 -75.0236 53° Northeast 306 352 8,900 -1,080 Descending FAA TRACON SMA TRACON (SMA)
08:17PM 39.8742 -74.9614 47° Northeast 309 356 8,200 -1,020 Descending FAA TRACON SMA TRACON (SMA)
08:18PM 39.9097 -74.9119 45° Northeast 302 348 7,600 -900 Descending FAA TRACON SMA TRACON (SMA)
08:19PM 39.9494 -74.8603 47° Northeast 297 342 7,000 -480 Descending FAA TRACON SMA TRACON (SMA)
08:19PM 39.9892 -74.8050 49° Northeast 298 343 7,000  Level FAA TRACON SMA TRACON (SMA)
08:20PM 40.0222 -74.7553 49° Northeast 294 338 7,000 60 Level FAA TRACON SMA TRACON (SMA)
08:21PM 40.0597 -74.6997 48° Northeast 293 337 7,100 60 Climbing FAA TRACON SMA TRACON (SMA)
08:21PM 40.0978 -74.6439 44° Northeast 297 342 7,100 -120 Level FAA TRACON SMA TRACON (SMA)
08:22PM 40.1344 -74.5969 13° North 303 349 7,000  Descending FAA TRACON SMA TRACON (SMA)
08:23PM 40.1894 -74.5797 11° North 296 341 7,100  Climbing FAA TRACON SMA TRACON (SMA)
08:23PM 40.2447 -74.5661 11° North 290 334 7,000 -420 Descending FAA TRACON SMA TRACON (SMA)
08:24PM 40.2872 -74.5550 North 252 290 6,600 -720 Descending FAA TRACON SMA TRACON (SMA)
08:24PM 40.3356 -74.5511 North 249 287 6,100 -420 Descending FAA TRACON SMA TRACON (SMA)
08:25PM 40.3667 -74.5500 360° North 249 287 6,100 -120 Level New York TRACON
08:26PM 40.4333 -74.5500 360° North 242 278 6,000 -60 Descending New York TRACON
08:27PM 40.5000 -74.5500 360° North 243 280 6,000  Level New York TRACON
08:28PM 40.5833 -74.5500 360° North 244 281 6,100 -120 Climbing New York TRACON
08:29PM 40.6333 -74.5500 North 245 282 5,800 -540 Descending New York TRACON
08:30PM 40.7167 -74.5333 360° North 245 282 5,100 -420 Descending New York TRACON
08:31PM 40.7833 -74.5333 37° Northeast 246 283 5,000  Descending New York TRACON
08:32PM 40.8333 -74.4833 45° Northeast 253 291 5,100  Climbing New York TRACON
08:33PM 40.8833 -74.4167 56° Northeast 252 290 5,000 -60 Descending New York TRACON
08:34PM 40.9167 -74.3500 78° East 256 295 5,000 -480 Level New York TRACON
08:35PM 40.9333 -74.2500 105° East 251 289 4,100 -600 Descending New York TRACON
08:36PM 40.9167 -74.1667 108° East 213 245 3,800 -480 Descending New York TRACON
08:37PM 40.9000 -74.1000 108° East 200 230 3,100 -720 Descending New York TRACON